createdAt,value
2022-10-19T00:01:26.732Z,97890.22
2022-10-19T00:03:56.889Z,97887.97
2022-10-19T00:06:28.694Z,97883.75
2022-10-19T00:08:59.697Z,97876.31
2022-10-19T00:11:31.690Z,97880.06
2022-10-19T00:14:02.286Z,97881.97
2022-10-19T00:16:33.391Z,97885.53
2022-10-19T00:19:04.472Z,97885.84
2022-10-19T00:21:33.153Z,97886.69
2022-10-19T00:24:01.808Z,97891.22
2022-10-19T00:26:31.798Z,97893.31
2022-10-19T00:29:00.476Z,97896.06
2022-10-19T00:31:29.258Z,97903.00
2022-10-19T00:33:59.237Z,97907.06
2022-10-19T00:36:31.002Z,97907.06
2022-10-19T00:39:00.574Z,97913.03
2022-10-19T00:41:32.961Z,97916.59
2022-10-19T00:44:05.321Z,97912.38
2022-10-19T00:46:36.207Z,97910.09
2022-10-19T00:49:10.920Z,97911.53
2022-10-19T00:51:45.025Z,97916.72
2022-10-19T00:54:14.985Z,97908.78
2022-10-19T00:56:47.196Z,97913.63
2022-10-19T00:59:19.488Z,97910.44
2022-10-19T01:01:50.060Z,97909.31
2022-10-19T01:04:19.623Z,97910.94
2022-10-19T01:06:48.459Z,97901.56
2022-10-19T01:09:17.180Z,97907.72
2022-10-19T01:11:56.234Z,97903.00
2022-10-19T01:14:39.392Z,97904.78
2022-10-19T01:17:21.773Z,97896.84
2022-10-19T01:20:39.792Z,97898.75
2022-10-19T01:23:38.262Z,97893.44
2022-10-19T01:26:32.074Z,97898.94
2022-10-19T01:29:16.946Z,97899.44
2022-10-19T01:31:53.952Z,97896.19
2022-10-19T01:34:30.372Z,97897.66
2022-10-19T01:37:03.673Z,97894.09
2022-10-19T01:39:47.680Z,97884.06
2022-10-19T01:42:27.282Z,97888.91
2022-10-19T01:45:03.498Z,97891.00
2022-10-19T01:47:39.214Z,97880.59
2022-10-19T01:50:14.412Z,97887.41
2022-10-19T01:52:44.668Z,97881.56
2022-10-19T01:55:16.905Z,97883.03
2022-10-19T01:57:53.228Z,97883.97
2022-10-19T02:00:24.119Z,97877.97
2022-10-19T02:02:55.742Z,97876.53
2022-10-19T02:05:29.435Z,97868.94
2022-10-19T02:08:03.583Z,97871.84
2022-10-19T02:10:34.915Z,97873.19
2022-10-19T02:13:05.687Z,97870.91
2022-10-19T02:15:39.242Z,97865.28
2022-10-19T02:18:11.709Z,97860.97
2022-10-19T02:20:40.574Z,97855.28
2022-10-19T02:23:09.526Z,97860.81
2022-10-19T02:25:38.462Z,97850.97
2022-10-19T02:28:07.299Z,97849.69
2022-10-19T02:30:36.054Z,97853.25
2022-10-19T02:33:04.937Z,97846.94
2022-10-19T02:35:35.219Z,97841.28
2022-10-19T02:38:06.219Z,97845.66
2022-10-19T02:40:42.088Z,97845.16
2022-10-19T02:43:15.396Z,97846.25
2022-10-19T02:45:49.525Z,97836.88
2022-10-19T02:48:22.853Z,97836.72
2022-10-19T02:50:53.046Z,97842.41
2022-10-19T02:53:21.671Z,97838.81
2022-10-19T02:55:51.801Z,97839.47
2022-10-19T02:58:20.430Z,97837.84
2022-10-19T03:00:48.779Z,97832.34
2022-10-19T03:03:17.267Z,97833.47
2022-10-19T03:05:45.509Z,97824.25
2022-10-19T03:08:15.242Z,97823.75
2022-10-19T03:10:43.554Z,97835.53
2022-10-19T03:13:12.421Z,97829.63
2022-10-19T03:15:41.036Z,97831.66
2022-10-19T03:18:09.661Z,97827.44
2022-10-19T03:20:37.934Z,97830.06
2022-10-19T03:23:06.272Z,97829.69
2022-10-19T03:25:35.959Z,97825.59
2022-10-19T03:28:04.642Z,97827.34
2022-10-19T03:30:32.960Z,97822.97
2022-10-19T03:33:01.620Z,97819.69
2022-10-19T03:35:30.231Z,97817.56
2022-10-19T03:37:58.584Z,97816.75
2022-10-19T03:40:27.190Z,97819.44
2022-10-19T03:42:57.158Z,97820.75
2022-10-19T03:45:25.457Z,97815.75
2022-10-19T03:47:54.310Z,97823.72
2022-10-19T03:50:22.958Z,97826.25
2022-10-19T03:52:51.715Z,97826.81
2022-10-19T03:55:20.397Z,97823.44
2022-10-19T03:57:48.681Z,97829.44
2022-10-19T04:00:18.922Z,97820.19
2022-10-19T04:02:47.264Z,97827.97
2022-10-19T04:05:15.919Z,97817.63
2022-10-19T04:07:44.551Z,97824.56
2022-10-19T04:10:12.818Z,97817.94
2022-10-19T04:12:41.394Z,97821.69
2022-10-19T04:15:11.207Z,97823.31
2022-10-19T04:17:40.880Z,97829.91
2022-10-19T04:20:10.872Z,97822.16
2022-10-19T04:22:39.147Z,97827.03
2022-10-19T04:25:10.201Z,97836.56
2022-10-19T04:27:38.515Z,97835.09
2022-10-19T04:30:08.104Z,97833.09
2022-10-19T04:32:36.770Z,97832.47
2022-10-19T04:35:08.500Z,97837.66
2022-10-19T04:37:37.191Z,97846.22
2022-10-19T04:40:08.649Z,97837.19
2022-10-19T04:42:40.892Z,97836.25
2022-10-19T04:45:10.392Z,97839.97
2022-10-19T04:47:39.044Z,97836.91
2022-10-19T04:50:09.701Z,97838.53
2022-10-19T04:52:39.405Z,97834.88
2022-10-19T04:55:08.562Z,97842.75
2022-10-19T04:57:37.257Z,97841.00
2022-10-19T05:00:07.067Z,97840.69
2022-10-19T05:02:35.678Z,97842.94
2022-10-19T05:05:04.334Z,97833.78
2022-10-19T05:07:34.586Z,97833.44
2022-10-19T05:10:03.461Z,97826.81
2022-10-19T05:12:32.086Z,97835.22
2022-10-19T05:15:00.423Z,97840.72
2022-10-19T05:17:31.724Z,97835.09
2022-10-19T05:20:00.580Z,97828.31
2022-10-19T05:22:29.027Z,97830.38
2022-10-19T05:24:58.989Z,97832.03
2022-10-19T05:27:27.323Z,97832.03
2022-10-19T05:29:55.945Z,97834.44
2022-10-19T05:32:24.740Z,97829.13
2022-10-19T05:34:53.339Z,97837.16
2022-10-19T05:37:22.223Z,97835.03
2022-10-19T05:39:50.824Z,97840.84
2022-10-19T05:42:20.521Z,97833.09
2022-10-19T05:44:49.269Z,97836.31
2022-10-19T05:47:17.965Z,97830.84
2022-10-19T05:49:46.253Z,97833.41
2022-10-19T05:52:15.202Z,97829.38
2022-10-19T05:54:43.543Z,97828.53
2022-10-19T05:57:12.237Z,97830.47
2022-10-19T05:59:42.202Z,97825.47
2022-10-19T06:02:15.289Z,97829.19
2022-10-19T06:04:43.871Z,97823.75
2022-10-19T06:07:12.541Z,97832.28
2022-10-19T06:09:41.228Z,97834.88
2022-10-19T06:12:09.869Z,97831.53
2022-10-19T06:14:38.467Z,97831.22
2022-10-19T06:17:08.228Z,97826.84
2022-10-19T06:19:36.771Z,97839.44
2022-10-19T06:22:05.477Z,97834.53
2022-10-19T06:24:36.514Z,97836.47
2022-10-19T06:27:07.461Z,97839.22
2022-10-19T06:29:36.728Z,97839.88
2022-10-19T06:32:05.580Z,97849.09
2022-10-19T06:34:35.359Z,97842.06
2022-10-19T06:37:04.014Z,97845.53
2022-10-19T06:39:33.073Z,97851.06
2022-10-19T06:42:01.394Z,97851.22
2022-10-19T06:44:30.023Z,97853.03
2022-10-19T06:46:58.373Z,97849.97
2022-10-19T06:49:27.575Z,97851.94
2022-10-19T06:51:57.551Z,97852.59
2022-10-19T06:54:26.564Z,97852.88
2022-10-19T06:56:55.193Z,97850.31
2022-10-19T06:59:23.444Z,97843.94
2022-10-19T07:01:53.759Z,97845.28
2022-10-19T07:04:22.414Z,97850.91
2022-10-19T07:06:51.824Z,97843.19
2022-10-19T07:09:22.460Z,97851.59
2022-10-19T07:11:52.169Z,97844.81
2022-10-19T07:14:20.767Z,97847.97
2022-10-19T07:16:52.455Z,97852.06
2022-10-19T07:19:21.099Z,97856.66
2022-10-19T07:21:53.020Z,97863.97
2022-10-19T07:24:22.927Z,97858.03
2022-10-19T07:26:52.922Z,97862.03
2022-10-19T07:29:21.886Z,97856.00
2022-10-19T07:31:51.236Z,97854.38
2022-10-19T07:34:19.919Z,97854.69
2022-10-19T07:36:50.198Z,97854.88
2022-10-19T07:39:18.986Z,97856.69
2022-10-19T07:41:49.271Z,97862.63
2022-10-19T07:44:17.908Z,97856.47
2022-10-19T07:46:46.277Z,97849.84
2022-10-19T07:49:18.991Z,97862.22
2022-10-19T07:51:48.041Z,97858.81
2022-10-19T07:54:16.755Z,97861.78
2022-10-19T07:56:45.549Z,97866.66
2022-10-19T07:59:17.210Z,97873.00
2022-10-19T08:01:45.941Z,97869.19
2022-10-19T08:07:03.010Z,97869.75
2022-10-19T08:09:52.316Z,97868.94
2022-10-19T08:12:20.246Z,97870.00
2022-10-19T08:14:50.297Z,97871.34
2022-10-19T08:17:18.911Z,97869.88
2022-10-19T08:19:47.863Z,97871.00
2022-10-19T08:22:16.959Z,97870.91
2022-10-19T08:24:45.210Z,97863.81
2022-10-19T08:27:14.829Z,97870.03
2022-10-19T08:29:43.676Z,97879.25
2022-10-19T08:32:13.673Z,97873.53
2022-10-19T08:34:42.272Z,97869.47
2022-10-19T08:37:20.183Z,97870.69
2022-10-19T08:39:59.862Z,97861.94
2022-10-19T08:42:42.554Z,97866.22
2022-10-19T08:45:39.021Z,97864.38
2022-10-19T08:48:29.696Z,97869.28
2022-10-19T08:51:00.398Z,97862.84
2022-10-19T08:53:41.505Z,97868.31
2022-10-19T08:56:49.398Z,97862.63
2022-10-19T08:59:25.244Z,97858.53
2022-10-19T09:01:59.266Z,97858.63
2022-10-19T09:04:36.391Z,97859.94
2022-10-19T09:07:25.479Z,97854.66
2022-10-19T09:10:01.320Z,97859.47
2022-10-19T09:12:46.854Z,97856.63
2022-10-19T09:15:20.049Z,97860.16
2022-10-19T09:17:49.548Z,97862.31
2022-10-19T09:20:23.877Z,97859.06
2022-10-19T09:23:09.782Z,97864.03
2022-10-19T09:25:42.852Z,97862.44
2022-10-19T09:28:38.908Z,97860.97
2022-10-19T09:31:14.551Z,97864.41
2022-10-19T09:33:50.441Z,97861.63
2022-10-19T09:36:23.064Z,97861.81
2022-10-19T09:39:01.760Z,97865.59
2022-10-19T09:41:30.376Z,97860.78
2022-10-19T09:43:59.867Z,97874.78
2022-10-19T09:49:18.660Z,97866.75
2022-10-19T09:51:54.223Z,97867.13
2022-10-19T09:54:34.640Z,97870.25
2022-10-19T09:57:03.597Z,97877.28
2022-10-19T09:59:35.663Z,97881.16
2022-10-19T10:02:19.840Z,97871.56
2022-10-19T10:04:57.485Z,97870.78
2022-10-19T10:07:36.565Z,97870.38
2022-10-19T10:10:12.467Z,97876.31
2022-10-19T10:12:42.662Z,97866.28
2022-10-19T10:15:20.320Z,97870.31
2022-10-19T10:17:51.941Z,97872.66
2022-10-19T10:20:27.830Z,97868.97
2022-10-19T10:23:02.327Z,97860.78
2022-10-19T10:25:33.769Z,97858.69
2022-10-19T10:28:05.089Z,97854.75
2022-10-19T10:30:39.773Z,97847.88
2022-10-19T10:33:15.886Z,97853.19
2022-10-19T10:36:02.658Z,97842.75
2022-10-19T10:38:36.759Z,97844.28
2022-10-19T10:41:15.355Z,97836.50
2022-10-19T10:43:58.556Z,97834.72
2022-10-19T10:46:35.583Z,97834.31
2022-10-19T10:49:07.914Z,97834.50
2022-10-19T10:51:44.055Z,97833.66
2022-10-19T10:54:21.576Z,97827.50
2022-10-19T10:57:12.954Z,97823.16
2022-10-19T10:59:56.808Z,97824.75
2022-10-19T11:02:39.668Z,97813.22
2022-10-19T11:05:16.814Z,97817.16
2022-10-19T11:07:47.841Z,97807.22
2022-10-19T11:10:27.855Z,97808.41
2022-10-19T11:13:09.533Z,97804.03
2022-10-19T11:15:51.488Z,97798.78
2022-10-19T11:18:24.780Z,97806.41
2022-10-19T11:21:02.847Z,97802.03
2022-10-19T11:23:46.787Z,97801.63
2022-10-19T11:26:34.925Z,97784.47
2022-10-19T11:29:22.912Z,97790.44
2022-10-19T11:31:54.524Z,97783.66
2022-10-19T11:34:45.221Z,97781.56
2022-10-19T11:37:25.604Z,97776.38
2022-10-19T11:40:06.659Z,97776.44
2022-10-19T11:42:57.817Z,97780.38
2022-10-19T11:45:39.880Z,97770.75
2022-10-19T11:48:52.924Z,97760.91
2022-10-19T11:51:38.185Z,97754.88
2022-10-19T11:54:38.704Z,97760.09
2022-10-19T11:57:17.314Z,97754.13
2022-10-19T12:00:13.765Z,97748.50
2022-10-19T12:03:11.582Z,97745.72
2022-10-19T12:05:52.316Z,97736.44
2022-10-19T12:08:45.878Z,97734.06
2022-10-19T12:11:29.170Z,97737.06
2022-10-19T12:14:04.304Z,97735.25
2022-10-19T12:16:44.146Z,97727.84
2022-10-19T12:19:22.513Z,97723.94
2022-10-19T12:21:56.325Z,97735.50
2022-10-19T12:24:28.497Z,97728.41
2022-10-19T12:26:57.921Z,97726.84
2022-10-19T12:29:29.489Z,97722.81
2022-10-19T12:32:02.031Z,97718.72
2022-10-19T12:34:45.704Z,97721.09
2022-10-19T12:37:24.816Z,97721.59
2022-10-19T12:40:01.802Z,97704.75
2022-10-19T12:42:36.255Z,97709.22
2022-10-19T12:45:27.027Z,97709.91
2022-10-19T12:48:24.654Z,97704.31
2022-10-19T12:51:16.954Z,97703.25
2022-10-19T12:53:50.257Z,97706.44
2022-10-19T12:56:23.653Z,97701.88
2022-10-19T12:58:57.913Z,97711.91
2022-10-19T13:01:42.126Z,97692.00
2022-10-19T13:04:16.066Z,97693.22
2022-10-19T13:06:50.962Z,97687.63
2022-10-19T13:09:25.826Z,97687.84
2022-10-19T13:12:44.142Z,97689.34
2022-10-19T13:15:52.661Z,97686.03
2022-10-19T13:19:09.435Z,97692.63
2022-10-19T13:22:25.604Z,97686.53
2022-10-19T13:25:28.188Z,97687.47
2022-10-19T13:28:02.228Z,97686.38
2022-10-19T13:31:09.351Z,97687.72
2022-10-19T13:33:55.404Z,97679.09
2022-10-19T13:36:26.392Z,97670.81
2022-10-19T13:39:14.083Z,97676.31
2022-10-19T13:41:57.082Z,97677.09
2022-10-19T13:44:36.601Z,97675.06
2022-10-19T13:50:40.252Z,97677.09
2022-10-19T13:53:39.068Z,97674.81
2022-10-19T13:56:40.125Z,97675.84
2022-10-19T13:59:42.068Z,97672.47
2022-10-19T14:02:52.086Z,97665.56
2022-10-19T14:05:41.811Z,97660.78
2022-10-19T14:08:20.966Z,97661.13
2022-10-19T14:11:01.607Z,97658.63
2022-10-19T14:13:31.798Z,97658.28
2022-10-19T14:16:03.005Z,97656.97
2022-10-19T14:18:33.845Z,97660.03
2022-10-19T14:21:06.761Z,97658.84
2022-10-19T14:23:38.098Z,97657.31
2022-10-19T14:26:15.629Z,97643.16
2022-10-19T14:28:45.424Z,97641.78
2022-10-19T14:31:23.661Z,97647.53
2022-10-19T14:33:54.759Z,97638.41
2022-10-19T14:36:30.061Z,97638.16
2022-10-19T14:38:58.975Z,97636.66
2022-10-19T14:44:37.426Z,97629.25
2022-10-19T14:47:20.148Z,97641.19
2022-10-19T14:49:49.361Z,97632.25
2022-10-19T14:52:25.053Z,97623.97
2022-10-19T14:54:56.850Z,97623.63
2022-10-19T14:57:30.663Z,97627.25
2022-10-19T15:00:04.049Z,97617.28
2022-10-19T15:02:38.769Z,97621.84
2022-10-19T15:05:16.533Z,97619.59
2022-10-19T15:07:45.422Z,97609.22
2022-10-19T15:10:22.668Z,97608.06
2022-10-19T15:12:52.710Z,97606.72
2022-10-19T15:15:26.598Z,97606.13
2022-10-19T15:17:57.945Z,97607.31
2022-10-19T15:20:36.322Z,97608.00
2022-10-19T15:23:35.834Z,97604.19
2022-10-19T15:26:17.159Z,97609.50
2022-10-19T15:28:46.670Z,97601.19
2022-10-19T15:31:20.663Z,97601.31
2022-10-19T15:33:53.164Z,97594.78
2022-10-19T15:36:24.412Z,97595.56
2022-10-19T15:39:17.907Z,97595.66
2022-10-19T15:41:53.716Z,97597.75
2022-10-19T15:44:35.187Z,97588.59
2022-10-19T15:47:24.958Z,97580.25
2022-10-19T15:49:56.813Z,97588.22
2022-10-19T15:52:26.713Z,97588.41
2022-10-19T15:54:57.131Z,97589.34
2022-10-19T15:57:34.528Z,97587.09
2022-10-19T16:00:08.945Z,97585.34
2022-10-19T16:02:39.087Z,97575.41
2022-10-19T16:05:08.534Z,97596.72
2022-10-19T16:07:39.971Z,97584.88
2022-10-19T16:10:15.382Z,97584.78
2022-10-19T16:12:43.988Z,97589.34
2022-10-19T16:15:14.439Z,97583.59
2022-10-19T16:17:45.940Z,97591.69
2022-10-19T16:20:14.869Z,97587.53
2022-10-19T16:22:43.451Z,97589.66
2022-10-19T16:25:12.335Z,97586.59
2022-10-19T16:27:41.253Z,97586.41
2022-10-19T16:30:11.377Z,97598.53
2022-10-19T16:35:15.159Z,97589.31
2022-10-19T16:37:43.692Z,97593.03
2022-10-19T16:40:12.770Z,97591.88
2022-10-19T16:42:41.352Z,97596.88
2022-10-19T16:45:11.437Z,97597.69
2022-10-19T16:47:39.683Z,97593.63
2022-10-19T16:50:09.070Z,97604.06
2022-10-19T16:52:38.978Z,97603.88
2022-10-19T16:55:08.709Z,97610.47
2022-10-19T16:57:37.442Z,97607.56
2022-10-19T17:00:09.464Z,97617.56
2022-10-19T17:02:41.926Z,97616.25
2022-10-19T17:05:12.662Z,97611.72
2022-10-19T17:07:42.807Z,97604.13
2022-10-19T17:10:11.851Z,97601.97
2022-10-19T17:12:41.682Z,97597.66
2022-10-19T17:15:40.874Z,97594.63
2022-10-19T17:17:59.724Z,97584.16
2022-10-19T17:20:28.284Z,97584.34
2022-10-19T17:22:58.620Z,97574.31
2022-10-19T17:25:27.430Z,97571.56
2022-10-19T17:27:55.649Z,97569.28
2022-10-19T17:30:23.993Z,97584.88
2022-10-19T17:32:52.546Z,97578.56
2022-10-19T17:35:21.045Z,97582.56
2022-10-19T17:37:49.595Z,97582.22
2022-10-19T17:40:20.307Z,97582.75
2022-10-19T17:42:48.857Z,97584.06
2022-10-19T17:45:17.204Z,97587.59
2022-10-19T17:47:45.767Z,97581.63
2022-10-19T17:50:14.057Z,97574.88
2022-10-19T17:52:42.636Z,97581.63
2022-10-19T17:55:13.193Z,97571.63
2022-10-19T17:57:43.526Z,97571.59
2022-10-19T18:00:12.917Z,97566.53
2022-10-19T18:02:44.368Z,97568.34
2022-10-19T18:05:12.983Z,97572.66
2022-10-19T18:07:43.377Z,97570.22
2022-10-19T18:10:11.916Z,97576.19
2022-10-19T18:12:41.818Z,97578.91
2022-10-19T18:15:11.138Z,97584.38
2022-10-19T18:17:39.984Z,97580.84
2022-10-19T18:20:10.071Z,97584.66
2022-10-19T18:25:21.830Z,97586.34
2022-10-19T18:27:56.333Z,97576.81
2022-10-19T18:30:25.473Z,97573.59
2022-10-19T18:32:54.427Z,97567.34
2022-10-19T18:35:23.863Z,97579.66
2022-10-19T18:37:56.080Z,97571.09
2022-10-19T18:40:25.081Z,97576.47
2022-10-19T18:42:55.244Z,97574.41
2022-10-19T18:45:24.048Z,97576.88
2022-10-19T18:48:03.114Z,97571.22
2022-10-19T18:50:32.203Z,97558.91
2022-10-19T18:53:01.235Z,97569.53
2022-10-19T18:55:30.133Z,97559.88
2022-10-19T18:58:00.269Z,97561.47
2022-10-19T19:00:29.062Z,97559.97
2022-10-19T19:02:57.940Z,97562.06
2022-10-19T19:05:26.746Z,97562.97
2022-10-19T19:07:56.094Z,97566.19
2022-10-19T19:10:25.573Z,97555.16
2022-10-19T19:13:00.017Z,97555.16
2022-10-19T19:15:32.444Z,97554.22
2022-10-19T19:18:01.170Z,97556.53
2022-10-19T19:20:29.667Z,97547.22
2022-10-19T19:22:58.522Z,97553.19
2022-10-19T19:25:27.485Z,97546.88
2022-10-19T19:27:56.238Z,97545.25
2022-10-19T19:30:25.279Z,97544.75
2022-10-19T19:32:55.105Z,97541.09
2022-10-19T19:35:24.371Z,97551.00
2022-10-19T19:37:53.255Z,97547.69
2022-10-19T19:40:22.060Z,97555.09
2022-10-19T19:42:53.760Z,97556.09
2022-10-19T19:45:22.592Z,97561.34
2022-10-19T19:47:51.712Z,97551.44
2022-10-19T19:50:21.873Z,97542.00
2022-10-19T19:52:51.009Z,97551.81
2022-10-19T19:55:19.935Z,97552.94
2022-10-19T19:57:50.249Z,97537.47
2022-10-19T20:00:19.242Z,97548.31
2022-10-19T20:02:56.619Z,97545.19
2022-10-19T20:05:28.344Z,97537.41
2022-10-19T20:07:56.990Z,97534.50
2022-10-19T20:10:25.894Z,97533.88
2022-10-19T20:12:56.366Z,97533.56
2022-10-19T20:15:25.277Z,97529.41
2022-10-19T20:17:53.987Z,97523.94
2022-10-19T20:20:23.010Z,97532.88
2022-10-19T20:22:53.306Z,97534.72
2022-10-19T20:25:23.612Z,97531.88
2022-10-19T20:27:52.154Z,97540.69
2022-10-19T20:30:21.755Z,97540.28
2022-10-19T20:32:57.208Z,97536.34
2022-10-19T20:35:28.832Z,97538.69
2022-10-19T20:37:59.223Z,97539.16
2022-10-19T20:43:03.782Z,97541.75
2022-10-19T20:45:32.109Z,97533.47
2022-10-19T20:48:00.493Z,97538.72
2022-10-19T20:50:28.832Z,97536.47
2022-10-19T20:52:58.552Z,97537.78
2022-10-19T20:55:26.965Z,97530.22
2022-10-19T20:57:55.648Z,97526.75
2022-10-19T21:00:24.083Z,97535.84
2022-10-19T21:02:53.584Z,97523.63
2022-10-19T21:05:22.252Z,97517.28
2022-10-19T21:07:50.980Z,97529.47
2022-10-19T21:10:20.651Z,97519.19
2022-10-19T21:12:49.291Z,97520.09
2022-10-19T21:15:18.015Z,97526.34
2022-10-19T21:17:48.938Z,97520.69
2022-10-19T21:20:17.770Z,97524.72
2022-10-19T21:22:46.403Z,97538.59
2022-10-19T21:25:15.068Z,97535.47
2022-10-19T21:27:44.820Z,97536.25
2022-10-19T21:30:13.707Z,97533.34
2022-10-19T21:32:42.391Z,97525.94
2022-10-19T21:35:11.153Z,97528.88
2022-10-19T21:37:39.846Z,97524.03
2022-10-19T21:40:09.931Z,97519.41
2022-10-19T21:42:38.987Z,97508.00
2022-10-19T21:45:29.192Z,97514.53
2022-10-19T21:47:58.750Z,97511.00
2022-10-19T21:50:28.075Z,97507.28
2022-10-19T21:52:56.436Z,97507.19
2022-10-19T21:55:25.530Z,97503.88
2022-10-19T21:57:54.020Z,97492.66
2022-10-19T22:00:23.777Z,97499.41
2022-10-19T22:02:52.155Z,97503.94
2022-10-19T22:05:20.796Z,97505.06
2022-10-19T22:07:49.639Z,97507.19
2022-10-19T22:10:18.439Z,97516.78
2022-10-19T22:12:47.225Z,97508.69
2022-10-19T22:15:16.592Z,97509.69
2022-10-19T22:17:46.350Z,97510.06
2022-10-19T22:20:15.197Z,97502.50
2022-10-19T22:22:43.559Z,97492.91
2022-10-19T22:25:11.906Z,97495.84
2022-10-19T22:27:40.371Z,97497.97
2022-10-19T22:30:09.733Z,97499.28
2022-10-19T22:32:38.313Z,97493.22
2022-10-19T22:35:09.321Z,97492.72
2022-10-19T22:37:37.988Z,97478.59
2022-10-19T22:40:07.694Z,97472.53
2022-10-19T22:42:36.394Z,97461.72
2022-10-19T22:45:06.405Z,97465.38
2022-10-19T22:47:35.270Z,97458.63
2022-10-19T22:50:04.087Z,97464.56
2022-10-19T22:52:34.390Z,97467.56
2022-10-19T22:55:03.238Z,97468.41
2022-10-19T22:57:31.546Z,97474.84
2022-10-19T23:00:00.231Z,97470.44
2022-10-19T23:02:30.622Z,97469.00
2022-10-19T23:04:59.239Z,97464.69
2022-10-19T23:07:27.932Z,97459.13
2022-10-19T23:09:57.546Z,97465.19
2022-10-19T23:12:26.162Z,97463.84
2022-10-19T23:14:54.436Z,97471.75
2022-10-19T23:17:23.031Z,97458.63
2022-10-19T23:19:51.659Z,97468.81
2022-10-19T23:22:21.113Z,97462.25
2022-10-19T23:24:49.437Z,97466.59
2022-10-19T23:27:20.068Z,97467.09
2022-10-19T23:29:48.403Z,97460.03
2022-10-19T23:32:17.079Z,97463.84
2022-10-19T23:34:48.286Z,97455.47
2022-10-19T23:37:16.958Z,97451.72
2022-10-19T23:39:45.639Z,97463.66
2022-10-19T23:42:13.971Z,97454.69
2022-10-19T23:44:43.899Z,97467.09
2022-10-19T23:47:12.512Z,97462.94
2022-10-19T23:49:41.140Z,97454.94
2022-10-19T23:52:09.474Z,97454.66
2022-10-19T23:54:38.217Z,97445.28
2022-10-19T23:57:06.857Z,97446.75
2022-10-19T23:59:35.499Z,97447.19
